Time;durP1;ratioP1;P1;durP2;ratioP2;P2;SDS_P1;SDS_P2;PMS_P1;PMS_P2;Temp;Humidity;BMP_temperature;BMP_pressure;BME280_temperature;BME280_humidity;BME280_pressure;Samples;Min_cycle;Max_cycle;Signal;HPM_P1;HPM_P2
2023/04/22 00:02:18;;;;;;;7.55;6.03;;;;;;;10.34;74.09;99124.13;4950685;28;20022;-90
2023/04/22 00:04:46;;;;;;;11.20;6.95;;;;;;;10.29;73.78;99106.91;4967281;28;20035;-90
2023/04/22 00:07:13;;;;;;;8.63;5.47;;;;;;;10.38;73.67;99103.66;4951664;28;20101;-90
2023/04/22 00:09:38;;;;;;;6.25;4.70;;;;;;;10.29;74.42;99117.66;4966269;28;20054;-90
2023/04/22 00:12:04;;;;;;;8.45;3.92;;;;;;;9.88;75.60;99104.25;4950494;28;20030;-91
2023/04/22 00:14:30;;;;;;;9.57;4.88;;;;;;;9.82;76.51;99105.31;4967200;28;20037;-90
2023/04/22 00:16:56;;;;;;;9.05;4.85;;;;;;;9.90;75.96;99120.91;4967236;28;20042;-91
2023/04/22 00:19:22;;;;;;;10.15;5.60;;;;;;;9.97;76.11;99117.94;4966885;28;20038;-90
2023/04/22 00:21:47;;;;;;;7.20;5.40;;;;;;;10.04;76.07;99117.66;4966666;28;20030;-90
2023/04/22 00:24:13;;;;;;;8.35;4.88;;;;;;;9.97;76.29;99119.84;4966192;28;20386;-91
2023/04/22 00:26:38;;;;;;;10.15;4.70;;;;;;;9.72;77.23;99105.31;4950781;28;20065;-90
2023/04/22 00:29:03;;;;;;;15.07;4.53;;;;;;;9.55;77.14;99105.59;4951818;28;20034;-90
2023/04/22 00:31:29;;;;;;;7.28;4.28;;;;;;;9.68;76.74;99104.25;4949997;28;20563;-90
2023/04/22 00:33:55;;;;;;;7.07;4.13;;;;;;;9.61;76.62;99090.28;4967126;28;20031;-90
2023/04/22 00:36:20;;;;;;;5.15;3.65;;;;;;;9.65;76.84;99107.44;4950635;28;20049;-90
2023/04/22 00:38:47;;;;;;;7.82;4.25;;;;;;;9.75;76.61;99109.34;4950009;28;20041;-91
2023/04/22 00:41:13;;;;;;;6.05;4.13;;;;;;;9.83;76.26;99106.91;4965106;28;20081;-90
2023/04/22 00:43:39;;;;;;;7.57;5.22;;;;;;;9.96;75.45;99100.22;4967229;28;20030;-91
2023/04/22 00:46:04;;;;;;;8.35;4.25;;;;;;;10.04;75.28;99104.22;4950387;28;20497;-90
2023/04/22 00:48:30;;;;;;;10.30;4.88;;;;;;;9.97;74.90;99088.34;4954356;28;20059;-90
2023/04/22 00:50:55;;;;;;;6.70;4.70;;;;;;;10.07;74.92;99095.63;4937343;28;20027;-90
2023/04/22 00:53:22;;;;;;;8.45;4.10;;;;;;;10.21;74.39;99103.91;4958639;28;20070;-90
2023/04/22 00:55:47;;;;;;;4.57;3.53;;;;;;;10.08;74.47;99097.22;4963533;28;20038;-91
2023/04/22 00:58:13;;;;;;;4.60;3.42;;;;;;;9.87;74.25;99078.41;4965589;28;20074;-90
2023/04/22 01:00:38;;;;;;;38.42;6.55;;;;;;;10.02;74.73;99109.06;4964974;28;20042;-91
2023/04/22 01:03:05;;;;;;;7.03;3.50;;;;;;;9.94;75.06;99104.22;4949574;28;20045;-91
2023/04/22 01:05:31;;;;;;;8.18;4.07;;;;;;;9.71;76.09;99107.22;4950223;28;20500;-90
2023/04/22 01:07:56;;;;;;;6.88;4.53;;;;;;;9.40;76.83;99073.31;4950669;28;20176;-89
2023/04/22 01:10:22;;;;;;;6.55;4.45;;;;;;;9.48;77.13;99102.34;4949695;28;20054;-90
2023/04/22 01:12:47;;;;;;;10.23;4.72;;;;;;;9.37;77.11;99090.78;4943800;28;20421;-90
2023/04/22 01:15:13;;;;;;;11.93;4.47;;;;;;;9.42;77.08;99106.94;4946254;28;20043;-90
2023/04/22 01:17:38;;;;;;;16.73;5.03;;;;;;;9.39;77.12;99101.28;4951522;28;20546;-89
2023/04/22 01:20:10;;;;;;;7.60;4.40;;;;;;;9.45;77.02;99108.28;4949484;28;20042;-90
2023/04/22 01:22:39;;;;;;;;;;;;;;;9.40;77.57;99125.19;4951919;28;20060;-89
2023/04/22 01:25:05;;;;;;;5.57;3.92;;;;;;;9.26;77.46;99108.78;4965222;28;19909;-87
2023/04/22 01:27:31;;;;;;;10.23;4.07;;;;;;;9.20;77.49;99099.09;4948586;28;20034;-88
2023/04/22 01:29:56;;;;;;;4.75;3.58;;;;;;;9.20;77.85;99107.16;4964033;28;20038;-87
2023/04/22 01:32:22;;;;;;;4.90;3.00;;;;;;;9.25;77.30;99109.03;4964393;28;20038;-87
2023/04/22 01:34:47;;;;;;;9.73;3.33;;;;;;;9.27;77.51;99102.31;4947800;28;20034;-87
2023/04/22 01:37:13;;;;;;;6.90;4.32;;;;;;;9.29;77.13;99097.47;4963977;28;20493;-87
2023/04/22 01:39:38;;;;;;;4.85;3.63;;;;;;;9.41;77.24;99102.63;4947753;28;20046;-88
2023/04/22 01:42:04;;;;;;;5.93;4.25;;;;;;;9.43;76.83;99111.22;4948175;28;20045;-87
2023/04/22 01:44:29;;;;;;;6.72;3.78;;;;;;;9.41;76.94;99113.38;4955946;28;20061;-87
2023/04/22 01:46:55;;;;;;;9.02;4.38;;;;;;;9.37;76.82;99098.84;4944417;28;20501;-87
2023/04/22 01:49:20;;;;;;;15.27;3.72;;;;;;;9.33;76.74;99097.75;4958437;28;20481;-87
2023/04/22 01:51:46;;;;;;;6.63;3.42;;;;;;;9.24;77.11;99096.69;4942745;28;20042;-87
2023/04/22 01:54:11;;;;;;;7.60;3.70;;;;;;;9.18;77.03;99090.50;4944327;28;20042;-87
2023/04/22 01:56:39;;;;;;;10.80;4.05;;;;;;;9.10;77.65;99086.44;4928335;28;20486;-86
2023/04/22 01:59:05;;;;;;;12.52;3.92;;;;;;;9.10;77.43;99085.66;4944498;28;20034;-87
2023/04/22 02:01:30;;;;;;;8.13;4.32;;;;;;;9.10;77.18;99091.03;4944419;28;20093;-87
2023/04/22 02:03:56;;;;;;;10.85;3.85;;;;;;;9.17;76.97;99093.44;4944497;28;20066;-86
2023/04/22 02:06:21;;;;;;;4.53;3.75;;;;;;;9.08;77.54;99099.34;4947115;28;20500;-86
2023/04/22 02:08:47;;;;;;;5.97;3.70;;;;;;;9.05;77.14;99089.13;4936547;28;20505;-86
2023/04/22 02:11:12;;;;;;;7.00;4.03;;;;;;;9.02;77.52;99088.84;4966471;28;20035;-87
2023/04/22 02:13:38;;;;;;;5.40;4.07;;;;;;;9.06;77.62;99095.31;4955240;28;20034;-87
2023/04/22 02:16:04;;;;;;;7.18;4.18;;;;;;;9.02;77.03;99086.97;4953631;28;20105;-86
2023/04/22 02:18:30;;;;;;;5.90;3.90;;;;;;;9.08;76.89;99090.47;4934668;28;20041;-87
2023/04/22 02:20:55;;;;;;;7.20;3.78;;;;;;;9.04;76.63;99087.50;4940172;29;20035;-87
2023/04/22 02:23:21;;;;;;;6.32;3.58;;;;;;;9.03;77.11;99091.28;4940120;28;20038;-87
2023/04/22 02:25:50;;;;;;;11.80;3.55;;;;;;;9.06;76.59;99106.03;4938846;28;20031;-87
2023/04/22 02:28:15;;;;;;;8.30;3.92;;;;;;;9.09;76.79;99089.41;4947569;28;20039;-87
2023/04/22 02:30:41;;;;;;;5.75;3.75;;;;;;;9.13;76.53;99097.72;4942754;28;20042;-88
2023/04/22 02:33:06;;;;;;;7.30;4.10;;;;;;;8.99;77.01;99098.25;4947733;28;20046;-87
2023/04/22 02:35:32;;;;;;;7.50;3.60;;;;;;;8.92;77.31;99099.56;4962938;28;20038;-86
2023/04/22 02:37:57;;;;;;;6.57;4.15;;;;;;;8.80;76.93;99089.88;4962815;28;20053;-87
2023/04/22 02:40:23;;;;;;;8.57;3.88;;;;;;;8.65;77.85;99085.25;4946120;28;20041;-87
2023/04/22 02:42:49;;;;;;;4.88;3.65;;;;;;;8.52;77.75;99083.03;4962798;28;20050;-86
2023/04/22 02:45:14;;;;;;;6.75;3.83;;;;;;;8.59;78.07;99090.84;4947409;28;20061;-86
2023/04/22 02:47:40;;;;;;;5.28;3.40;;;;;;;8.59;77.89;99101.59;4947442;28;20037;-87
2023/04/22 02:50:06;;;;;;;7.18;3.40;;;;;;;8.48;77.48;99101.53;4947379;28;20034;-87
2023/04/22 02:52:34;;;;;;;7.10;3.45;;;;;;;8.32;78.76;99109.75;4964023;28;20062;-87
2023/04/22 02:55:00;;;;;;;5.63;3.53;;;;;;;8.29;78.67;99121.81;4962781;28;20026;-85
2023/04/22 02:57:25;;;;;;;9.88;3.95;;;;;;;8.19;79.21;99125.22;4942019;28;20027;-86
2023/04/22 02:59:51;;;;;;;5.53;3.78;;;;;;;8.10;79.26;99116.84;4966081;28;20096;-86
2023/04/22 03:02:17;;;;;;;7.28;3.90;;;;;;;8.13;79.51;99125.47;4938203;28;20037;-86
2023/04/22 03:04:42;;;;;;;6.03;3.80;;;;;;;8.13;79.17;99117.41;4955416;28;20034;-86
2023/04/22 03:07:08;;;;;;;6.60;4.18;;;;;;;8.04;79.56;99120.56;4963064;28;20026;-87
2023/04/22 03:09:33;;;;;;;10.77;4.40;;;;;;;8.06;79.44;99125.69;4947112;28;20520;-87
2023/04/22 03:11:59;;;;;;;8.00;4.20;;;;;;;8.14;79.28;99125.22;4963047;28;20041;-88
2023/04/22 03:14:24;;;;;;;7.72;4.18;;;;;;;8.13;79.28;99134.31;4961512;28;20030;-87
2023/04/22 03:16:50;;;;;;;8.23;4.57;;;;;;;8.10;79.41;99126.78;4962392;28;20045;-87
2023/04/22 03:19:15;;;;;;;8.27;4.10;;;;;;;8.06;79.38;99125.69;4944241;28;20047;-87
2023/04/22 03:21:40;;;;;;;6.22;4.15;;;;;;;8.03;79.33;99118.13;4959962;28;20088;-87
2023/04/22 03:24:06;;;;;;;7.53;3.95;;;;;;;8.05;79.44;99127.56;4935979;28;20015;-87
2023/04/22 03:26:31;;;;;;;11.98;4.57;;;;;;;8.09;79.52;99135.88;4951719;28;20030;-87
2023/04/22 03:28:57;;;;;;;7.82;4.13;;;;;;;8.12;79.13;99130.03;4958617;28;20038;-87
2023/04/22 03:31:22;;;;;;;7.57;4.30;;;;;;;8.16;79.12;99135.69;4966218;28;20113;-87
2023/04/22 03:33:48;;;;;;;8.98;4.20;;;;;;;8.16;78.90;99143.72;4963944;28;20053;-87
2023/04/22 03:36:13;;;;;;;8.63;4.45;;;;;;;8.21;78.81;99157.16;4967064;28;20536;-87
2023/04/22 03:38:39;;;;;;;7.95;4.57;;;;;;;8.17;78.99;99145.31;4956597;28;20058;-87
2023/04/22 03:41:04;;;;;;;8.25;4.10;;;;;;;8.17;78.46;99143.44;4950083;28;20034;-87
2023/04/22 03:43:30;;;;;;;8.07;4.30;;;;;;;8.27;78.29;99154.25;4952796;28;20034;-87
2023/04/22 03:45:55;;;;;;;12.75;4.55;;;;;;;8.30;78.45;99158.31;4952515;28;20034;-87
2023/04/22 03:48:20;;;;;;;6.72;4.15;;;;;;;8.32;78.42;99168.75;4943514;28;20042;-87
2023/04/22 03:50:46;;;;;;;7.20;4.50;;;;;;;8.28;78.34;99168.47;4948620;28;20409;-87
2023/04/22 03:53:11;;;;;;;8.02;4.78;;;;;;;8.21;78.58;99166.00;4944699;28;20085;-87
2023/04/22 03:55:37;;;;;;;6.38;4.28;;;;;;;8.27;78.62;99170.34;4937359;28;20050;-87
2023/04/22 03:58:02;;;;;;;8.13;4.68;;;;;;;8.21;78.68;99175.94;4930832;28;20031;-87
2023/04/22 04:00:28;;;;;;;8.23;4.70;;;;;;;8.38;77.96;99173.88;4946641;28;20046;-87
2023/04/22 04:02:53;;;;;;;7.43;4.90;;;;;;;8.45;77.57;99160.31;4961484;28;20039;-87
2023/04/22 04:05:19;;;;;;;14.82;7.03;;;;;;;8.66;76.76;99170.06;4946174;28;20043;-88
2023/04/22 04:07:44;;;;;;;10.55;5.43;;;;;;;8.69;76.71;99172.25;4930818;28;20055;-88
2023/04/22 04:10:10;;;;;;;15.48;6.38;;;;;;;8.56;76.72;99172.69;4943123;29;20058;-86
2023/04/22 04:12:35;;;;;;;18.88;7.90;;;;;;;8.53;77.59;99175.91;4943199;28;20047;-87
2023/04/22 04:15:01;;;;;;;16.85;7.55;;;;;;;8.62;77.73;99182.38;4921041;28;20031;-87
2023/04/22 04:17:27;;;;;;;19.83;8.32;;;;;;;8.49;77.76;99183.66;4951128;28;20031;-87
2023/04/22 04:19:53;;;;;;;13.63;7.28;;;;;;;8.52;77.77;99192.25;4930369;28;20042;-86
2023/04/22 04:22:19;;;;;;;27.13;8.70;;;;;;;8.60;76.99;99200.63;4945446;28;20047;-87
2023/04/22 04:24:44;;;;;;;13.88;7.90;;;;;;;8.60;77.30;99206.00;4930326;28;20049;-88
2023/04/22 04:27:10;;;;;;;18.70;7.57;;;;;;;8.57;76.94;99190.44;4930375;28;20027;-89
2023/04/22 04:29:36;;;;;;;9.75;5.82;;;;;;;8.56;76.96;99204.91;4946778;28;20601;-87
2023/04/22 04:32:02;;;;;;;11.93;6.82;;;;;;;8.76;76.62;99208.75;4945953;28;20039;-88
2023/04/22 04:34:27;;;;;;;14.88;6.22;;;;;;;8.70;76.99;99202.56;4945583;28;20094;-87
2023/04/22 04:36:53;;;;;;;13.25;6.65;;;;;;;8.81;76.75;99206.91;4945652;28;20065;-87
2023/04/22 04:39:19;;;;;;;12.45;7.18;;;;;;;9.03;75.26;99203.28;4929291;28;20524;-87
2023/04/22 04:41:44;;;;;;;9.70;6.68;;;;;;;9.22;75.13;99217.03;4945564;28;20564;-87
2023/04/22 04:44:11;;;;;;;10.35;6.78;;;;;;;9.35;74.30;99219.22;4930385;28;20045;-87
2023/04/22 04:46:36;;;;;;;9.88;5.60;;;;;;;9.32;73.96;99211.69;4946048;28;20074;-87
2023/04/22 04:49:08;;;;;;;15.98;6.03;;;;;;;9.44;73.58;99212.28;4930400;28;20039;-87
2023/04/22 04:51:34;;;;;;;17.38;7.97;;;;;;;9.55;70.99;99215.78;4946827;28;20086;-87
2023/04/22 04:53:59;;;;;;;14.70;8.38;;;;;;;9.62;69.98;99224.41;4930299;28;20102;-87
2023/04/22 04:56:25;;;;;;;12.98;8.50;;;;;;;9.73;70.04;99227.09;4944504;28;20038;-88
2023/04/22 04:58:50;;;;;;;14.38;10.63;;;;;;;9.81;70.14;99226.59;4944742;28;20453;-86
2023/04/22 05:01:16;;;;;;;13.85;10.05;;;;;;;9.84;69.55;99226.06;4929332;28;20482;-87
2023/04/22 05:03:41;;;;;;;14.98;9.77;;;;;;;9.93;69.93;99223.66;4930051;28;20035;-87
2023/04/22 05:06:07;;;;;;;15.98;8.57;;;;;;;9.89;69.62;99215.31;4944999;28;20041;-87
2023/04/22 05:08:32;;;;;;;19.65;8.88;;;;;;;9.95;69.24;99203.47;4944390;28;20086;-87
2023/04/22 05:10:58;;;;;;;13.10;5.50;;;;;;;10.09;67.68;99215.31;4961083;28;20042;-87
2023/04/22 05:13:23;;;;;;;8.15;4.88;;;;;;;10.18;68.12;99220.16;4961483;28;20039;-88
2023/04/22 05:15:49;;;;;;;6.80;4.43;;;;;;;10.16;67.64;99216.94;4945263;28;20105;-87
2023/04/22 05:18:14;;;;;;;8.18;4.40;;;;;;;10.32;66.52;99224.75;4960757;28;20027;-88
2023/04/22 05:20:39;;;;;;;27.17;12.68;;;;;;;10.28;67.25;99223.66;4961243;28;20078;-87
2023/04/22 05:23:05;;;;;;;7.57;4.55;;;;;;;10.27;66.87;99226.59;4961257;28;20037;-87
2023/04/22 05:25:30;;;;;;;11.27;3.88;;;;;;;10.27;67.59;99231.97;4960692;28;20035;-88
2023/04/22 05:27:56;;;;;;;4.70;3.58;;;;;;;10.25;67.59;99232.28;4960614;28;20070;-87
2023/04/22 05:30:21;;;;;;;9.18;3.65;;;;;;;10.36;66.95;99210.78;4945134;28;20042;-86
2023/04/22 05:32:47;;;;;;;9.50;3.90;;;;;;;10.50;66.60;99223.41;4944277;28;20062;-87
2023/04/22 05:35:12;;;;;;;7.20;3.58;;;;;;;10.60;66.45;99227.94;4944617;28;20135;-87
2023/04/22 05:37:40;;;;;;;6.75;3.65;;;;;;;10.62;66.06;99223.09;4960314;28;20039;-87
2023/04/22 05:40:06;;;;;;;12.35;3.55;;;;;;;10.70;66.22;99229.81;4960164;28;20038;-87
2023/04/22 05:42:33;;;;;;;5.95;3.65;;;;;;;10.68;66.14;99227.38;4930644;28;20053;-87
2023/04/22 05:44:58;;;;;;;7.50;3.92;;;;;;;10.80;66.27;99232.47;4948548;28;20069;-87
2023/04/22 05:47:24;;;;;;;9.80;5.05;;;;;;;10.89;66.44;99230.84;4947100;28;20043;-87
2023/04/22 05:49:49;;;;;;;12.65;5.10;;;;;;;10.92;66.27;99232.19;4917626;29;20046;-88
2023/04/22 05:52:44;;;;;;;12.90;5.40;;;;;;;11.18;64.98;99234.78;4921579;28;20098;-88
2023/04/22 05:55:09;;;;;;;9.85;5.35;;;;;;;11.10;64.62;99215.44;4920525;28;20039;-87
2023/04/22 05:57:35;;;;;;;10.82;4.03;;;;;;;11.25;64.32;99219.94;4926554;28;20515;-88
2023/04/22 06:00:01;;;;;;;15.27;5.18;;;;;;;11.37;64.19;99230.41;4915136;29;20039;-87
2023/04/22 06:02:27;;;;;;;11.52;4.93;;;;;;;11.31;64.48;99236.91;4940869;29;20046;-87
2023/04/22 06:04:52;;;;;;;8.35;4.55;;;;;;;11.35;63.99;99224.50;4941004;29;20035;-87
2023/04/22 06:07:17;;;;;;;6.35;4.20;;;;;;;11.58;63.72;99260.78;4941074;29;20043;-87
2023/04/22 06:09:43;;;;;;;8.07;4.72;;;;;;;11.49;63.47;99247.03;4954188;28;20062;-89
2023/04/22 06:12:09;;;;;;;7.63;4.45;;;;;;;11.55;63.64;99252.41;4944498;28;20101;-88
2023/04/22 06:14:35;;;;;;;9.02;4.28;;;;;;;11.50;63.94;99250.56;4944489;28;20073;-89
2023/04/22 06:17:00;;;;;;;7.80;4.20;;;;;;;11.54;63.38;99259.72;4943907;28;20038;-87
2023/04/22 06:19:26;;;;;;;9.98;5.97;;;;;;;11.51;63.94;99257.56;4943673;28;20132;-87
2023/04/22 06:21:52;;;;;;;10.90;4.10;;;;;;;11.43;64.30;99258.94;4959476;28;20474;-87
2023/04/22 06:24:17;;;;;;;9.27;3.53;;;;;;;11.47;64.12;99253.78;4943975;28;20052;-88
2023/04/22 06:26:43;;;;;;;7.32;3.92;;;;;;;11.48;64.54;99256.22;4960329;28;20031;-87
2023/04/22 06:29:08;;;;;;;8.20;4.30;;;;;;;11.57;64.23;99271.81;4943265;28;20054;-87
2023/04/22 06:31:34;;;;;;;8.13;3.88;;;;;;;11.64;63.46;99270.44;4943612;28;20041;-87
2023/04/22 06:34:00;;;;;;;8.48;3.60;;;;;;;11.64;63.59;99272.31;4960808;28;20034;-89
2023/04/22 06:36:26;;;;;;;13.57;4.32;;;;;;;11.52;63.73;99276.16;4945136;28;20125;-90
2023/04/22 06:38:52;;;;;;;13.27;5.72;;;;;;;11.53;64.47;99280.44;4946288;28;20034;-90
2023/04/22 06:41:17;;;;;;;12.90;7.30;;;;;;;11.58;64.42;99274.25;4950002;28;20049;-88
2023/04/22 06:43:43;;;;;;;13.25;5.43;;;;;;;11.82;64.34;99303.25;4963384;28;20038;-90
2023/04/22 06:46:11;;;;;;;7.75;5.10;;;;;;;11.88;63.87;99283.25;4951064;28;20105;-90
2023/04/22 06:48:37;;;;;;;11.23;3.90;;;;;;;11.90;62.42;99278.41;4943885;28;20046;-89
2023/04/22 06:51:02;;;;;;;6.60;4.28;;;;;;;12.01;61.87;99282.66;4947588;28;20038;-90
2023/04/22 06:53:28;;;;;;;6.53;3.97;;;;;;;11.97;61.26;99278.09;4963748;28;20074;-90
2023/04/22 06:55:53;;;;;;;10.18;5.60;;;;;;;11.99;61.58;99287.50;4962735;28;20047;-90
2023/04/22 06:58:20;;;;;;;8.80;4.85;;;;;;;11.81;62.44;99291.66;4946055;28;20053;-89
2023/04/22 07:00:45;;;;;;;8.80;3.88;;;;;;;11.91;61.67;99293.50;4950292;28;20141;-90
2023/04/22 07:03:11;;;;;;;11.77;4.20;;;;;;;11.90;62.21;99290.00;4931981;29;20027;-89
2023/04/22 07:05:36;;;;;;;8.60;4.88;;;;;;;11.68;63.95;99282.28;4955167;28;20035;-87
2023/04/22 07:08:02;;;;;;;12.73;4.07;;;;;;;11.73;63.87;99289.53;4969084;28;20042;-93
2023/04/22 07:10:27;;;;;;;8.07;3.92;;;;;;;11.84;63.59;99292.97;4960011;28;20532;-89
2023/04/22 07:12:53;;;;;;;7.57;4.28;;;;;;;11.92;62.95;99287.03;4938706;28;20125;-89
2023/04/22 07:15:18;;;;;;;8.60;4.72;;;;;;;11.97;62.43;99278.09;4954838;28;20042;-89
2023/04/22 07:17:44;;;;;;;12.95;4.65;;;;;;;11.93;62.58;99273.28;4934257;28;20046;-87
2023/04/22 07:20:11;;;;;;;8.20;4.60;;;;;;;12.10;63.06;99302.56;4948343;28;20061;-88
2023/04/22 07:22:36;;;;;;;15.40;4.75;;;;;;;12.18;63.41;99295.78;4963685;28;20043;-87
2023/04/22 07:25:02;;;;;;;8.63;4.03;;;;;;;12.24;63.15;99294.66;4947902;28;20034;-88
2023/04/22 07:27:30;;;;;;;8.48;4.47;;;;;;;12.38;62.52;99305.59;4946695;28;20035;-87
2023/04/22 07:29:55;;;;;;;8.07;4.78;;;;;;;12.40;62.36;99308.03;4947076;28;20046;-88
2023/04/22 07:32:21;;;;;;;8.15;3.90;;;;;;;12.47;61.06;99305.78;4947292;28;20384;-88
2023/04/22 07:34:46;;;;;;;8.10;3.70;;;;;;;12.56;60.61;99298.72;4931137;28;20413;-87
2023/04/22 07:37:12;;;;;;;11.75;4.90;;;;;;;12.77;60.71;99312.84;4946404;28;20104;-87
2023/04/22 07:39:37;;;;;;;7.35;4.00;;;;;;;12.98;59.93;99320.75;4947268;28;20031;-87
2023/04/22 07:42:03;;;;;;;8.02;4.13;;;;;;;12.92;59.79;99317.28;4963105;28;20046;-88
2023/04/22 07:44:28;;;;;;;10.35;4.57;;;;;;;12.97;59.65;99319.97;4932687;28;20046;-87
2023/04/22 07:46:54;;;;;;;12.18;4.70;;;;;;;12.87;60.31;99311.94;4938854;28;20038;-88
2023/04/22 07:49:20;;;;;;;8.20;4.88;;;;;;;13.09;59.38;99324.97;4950722;28;20046;-87
2023/04/22 07:51:45;;;;;;;11.70;5.53;;;;;;;12.93;59.83;99322.41;4971022;28;20039;-88
2023/04/22 07:54:11;;;;;;;13.23;5.95;;;;;;;13.10;59.94;99332.00;4950753;28;20042;-86
2023/04/22 07:56:37;;;;;;;11.55;5.88;;;;;;;13.13;60.83;99328.69;4949603;28;20042;-87
2023/04/22 07:59:02;;;;;;;10.63;4.15;;;;;;;12.99;60.47;99317.78;4965803;28;20077;-88
2023/04/22 08:01:28;;;;;;;9.68;4.75;;;;;;;13.18;60.69;99333.25;4966331;28;20031;-88
2023/04/22 08:03:53;;;;;;;8.95;4.50;;;;;;;13.10;61.24;99326.59;4940632;28;20098;-87
2023/04/22 08:06:19;;;;;;;9.65;3.83;;;;;;;13.25;60.25;99323.72;4943798;28;20042;-88
2023/04/22 08:08:44;;;;;;;7.50;3.95;;;;;;;13.27;58.98;99305.31;4939561;28;20047;-91
2023/04/22 08:11:12;;;;;;;8.35;3.72;;;;;;;13.40;59.06;99322.75;4934598;28;20118;-88
2023/04/22 08:13:37;;;;;;;8.75;3.90;;;;;;;13.36;59.51;99329.03;4962410;28;20420;-88
2023/04/22 08:16:03;;;;;;;8.30;4.88;;;;;;;13.26;59.90;99330.75;4951288;28;20030;-88
2023/04/22 08:18:28;;;;;;;7.03;4.53;;;;;;;13.26;58.88;99338.84;4928255;29;20422;-88
2023/04/22 08:20:54;;;;;;;8.43;4.32;;;;;;;13.33;59.36;99330.44;4934638;28;20043;-88
2023/04/22 08:23:20;;;;;;;8.90;4.63;;;;;;;13.48;59.09;99332.94;4949876;28;20125;-88
2023/04/22 08:25:46;;;;;;;10.38;4.63;;;;;;;13.49;59.47;99334.56;4963053;28;20059;-88
2023/04/22 08:28:12;;;;;;;7.63;5.00;;;;;;;13.68;59.53;99347.34;4973094;28;20031;-87
2023/04/22 08:30:39;;;;;;;9.40;4.95;;;;;;;13.75;59.45;99340.47;4945170;29;20033;-88
2023/04/22 08:33:04;;;;;;;8.52;5.07;;;;;;;13.88;59.40;99347.09;4928146;28;20125;-88
2023/04/22 08:35:30;;;;;;;8.90;5.50;;;;;;;13.92;59.63;99325.63;4934605;28;20066;-88
2023/04/22 08:37:55;;;;;;;9.20;5.68;;;;;;;13.95;59.11;99335.88;4928133;28;20035;-88
2023/04/22 08:40:22;;;;;;;8.15;6.00;;;;;;;13.97;58.58;99330.19;4967344;28;20042;-88
2023/04/22 08:42:48;;;;;;;11.38;5.80;;;;;;;13.91;58.53;99324.81;4968341;28;20105;-87
2023/04/22 08:45:13;;;;;;;8.27;6.40;;;;;;;14.23;58.46;99342.25;4965880;28;20113;-88
2023/04/22 08:47:40;;;;;;;12.38;7.00;;;;;;;14.31;58.05;99338.88;4953953;29;20529;-87
2023/04/22 08:50:07;;;;;;;9.27;6.80;;;;;;;14.35;57.79;99339.91;4953132;28;20035;-89
2023/04/22 08:52:33;;;;;;;12.52;8.38;;;;;;;14.51;56.21;99328.84;4947079;28;20075;-88
2023/04/22 08:54:58;;;;;;;10.82;8.00;;;;;;;14.63;55.93;99326.50;4951645;29;20039;-88
2023/04/22 08:57:24;;;;;;;11.75;8.15;;;;;;;14.70;55.81;99335.03;4912255;29;20046;-91
2023/04/22 08:59:49;;;;;;;10.88;6.45;;;;;;;14.87;54.65;99314.72;4925732;29;20035;-88
2023/04/22 09:02:19;;;;;;;9.30;7.60;;;;;;;14.80;54.96;99325.16;4911258;29;20031;-90
2023/04/22 09:04:49;;;;;;;10.00;6.90;;;;;;;14.99;54.80;99328.59;4928352;29;20036;-90
2023/04/22 09:07:23;;;;;;;15.15;7.68;;;;;;;15.27;54.28;99337.59;4928754;29;20055;-90
2023/04/22 09:09:49;;;;;;;9.82;7.47;;;;;;;15.38;54.71;99323.78;4942982;28;20093;-91
2023/04/22 09:12:17;;;;;;;10.80;7.55;;;;;;;15.65;53.38;99326.50;4931977;28;20050;-90
2023/04/22 09:14:43;;;;;;;9.77;6.63;;;;;;;15.84;53.27;99323.69;4946888;28;20030;-88
2023/04/22 09:17:08;;;;;;;10.10;6.35;;;;;;;15.77;53.10;99326.00;4929626;28;20034;-88
2023/04/22 09:19:34;;;;;;;8.50;5.93;;;;;;;15.91;52.64;99321.34;4929866;28;20039;-88
2023/04/22 09:21:59;;;;;;;12.10;5.97;;;;;;;15.93;52.44;99331.91;4930026;28;20097;-88
2023/04/22 09:24:25;;;;;;;10.40;5.72;;;;;;;16.01;52.26;99323.06;4945304;28;20468;-88
2023/04/22 09:26:50;;;;;;;8.10;5.85;;;;;;;16.23;51.62;99325.00;4944689;28;20026;-88
2023/04/22 09:29:16;;;;;;;9.68;6.70;;;;;;;16.41;51.64;99338.72;4929268;28;20042;-88
2023/04/22 09:31:47;;;;;;;9.55;6.75;;;;;;;16.54;50.89;99329.72;4928883;28;20603;-87
2023/04/22 09:34:12;;;;;;;7.30;5.15;;;;;;;16.34;51.63;99325.56;4928735;28;20093;-88
2023/04/22 09:36:39;;;;;;;10.20;6.07;;;;;;;16.51;52.30;99331.13;4915173;28;20552;-86
2023/04/22 09:39:06;;;;;;;10.27;4.78;;;;;;;16.41;52.13;99325.94;4918351;29;20031;-86
2023/04/22 09:41:37;;;;;;;10.90;5.82;;;;;;;16.47;53.03;99332.84;4939116;28;20118;-87
2023/04/22 09:44:03;;;;;;;11.40;5.20;;;;;;;16.74;52.66;99325.69;4925769;29;20039;-88
2023/04/22 09:46:29;;;;;;;9.07;5.38;;;;;;;16.74;53.08;99328.41;4949261;28;20018;-89
2023/04/22 09:48:56;;;;;;;8.95;6.22;;;;;;;16.75;53.23;99322.66;4911098;29;20043;-88
2023/04/22 09:51:22;;;;;;;7.93;5.57;;;;;;;16.74;53.26;99321.03;4942313;29;20046;-88
2023/04/22 09:54:07;;;;;;;9.27;5.43;;;;;;;16.65;52.65;99331.06;4909864;29;20486;-87
2023/04/22 09:56:47;;;;;;;7.28;4.45;;;;;;;16.90;51.21;99332.38;4940454;29;20035;-87
2023/04/22 09:59:25;;;;;;;7.03;4.20;;;;;;;16.80;50.46;99324.44;4925183;29;20086;-88
2023/04/22 10:01:52;;;;;;;7.45;4.22;;;;;;;16.75;50.36;99303.63;4925950;29;20106;-92
2023/04/22 10:04:20;;;;;;;6.32;3.75;;;;;;;16.80;50.48;99310.84;4928503;29;20570;-90
2023/04/22 10:06:46;;;;;;;7.25;3.72;;;;;;;16.98;49.86;99311.78;4943617;29;20027;-87
2023/04/22 10:09:12;;;;;;;8.52;3.58;;;;;;;17.05;49.52;99297.72;4925183;29;20078;-86
2023/04/22 10:11:39;;;;;;;6.72;3.50;;;;;;;16.98;48.30;99300.91;4925448;29;20686;-89
2023/04/22 10:14:05;;;;;;;5.15;2.85;;;;;;;17.16;46.53;99297.16;4926563;29;20134;-88
2023/04/22 10:16:31;;;;;;;5.47;2.92;;;;;;;17.29;46.58;99297.34;4924989;29;20557;-89
2023/04/22 10:18:57;;;;;;;5.55;2.65;;;;;;;17.40;47.56;99298.66;4924973;29;20042;-88
2023/04/22 10:21:23;;;;;;;4.72;2.80;;;;;;;17.26;47.75;99296.03;4925564;29;20039;-88
2023/04/22 10:23:49;;;;;;;6.40;3.60;;;;;;;17.43;47.72;99287.16;4909741;29;20042;-88
2023/04/22 10:26:49;;;;;;;16.90;6.72;;;;;;;17.82;47.99;99293.63;4926510;28;20027;-90
2023/04/22 10:29:21;;;;;;;6.10;3.17;;;;;;;18.08;46.37;99282.00;4945053;29;20038;-87
2023/04/22 10:31:55;;;;;;;10.15;3.90;;;;;;;17.98;43.47;99286.63;4932110;28;20066;-89
2023/04/22 10:34:21;;;;;;;4.28;2.38;;;;;;;18.08;43.79;99293.69;4949706;28;20063;-89
2023/04/22 10:36:53;;;;;;;3.55;2.40;;;;;;;18.00;44.24;99285.50;4951641;29;20035;-89
2023/04/22 10:39:21;;;;;;;4.45;2.00;;;;;;;18.24;43.53;99268.66;4942431;29;20051;-88
2023/04/22 10:41:52;;;;;;;8.02;2.55;;;;;;;18.35;43.20;99276.19;4925677;29;20035;-88
2023/04/22 10:44:18;;;;;;;14.07;5.95;;;;;;;18.27;43.29;99260.66;4912373;28;20034;-89
2023/04/22 10:46:49;;;;;;;6.03;2.78;;;;;;;18.39;42.18;99273.63;4945017;29;20077;-88
2023/04/22 10:49:20;;;;;;;7.85;2.22;;;;;;;18.56;41.46;99259.16;4959597;28;20046;-88
2023/04/22 10:51:57;;;;;;;4.63;2.08;;;;;;;18.69;41.46;99260.88;4944297;28;20114;-89
2023/04/22 10:54:30;;;;;;;7.22;2.47;;;;;;;18.58;44.22;99274.06;4947363;28;20031;-89
2023/04/22 10:57:08;;;;;;;3.20;2.30;;;;;;;18.77;42.43;99276.41;4962249;28;20501;-88
2023/04/22 10:59:50;;;;;;;8.27;3.63;;;;;;;18.46;42.87;99260.28;4946490;28;20413;-88
2023/04/22 11:02:16;;;;;;;4.35;2.25;;;;;;;18.50;41.53;99255.00;4947941;29;20039;-89
2023/04/22 11:04:41;;;;;;;6.53;2.20;;;;;;;18.58;40.88;99260.44;4917467;28;20031;-88
2023/04/22 11:07:21;;;;;;;4.45;2.20;;;;;;;18.58;41.17;99276.00;4936590;28;20033;-87
2023/04/22 11:09:50;;;;;;;5.28;2.17;;;;;;;18.47;40.99;99259.19;4948945;28;20050;-88
2023/04/22 11:12:34;;;;;;;7.22;2.40;;;;;;;18.61;40.84;99285.44;4933158;29;20126;-87
2023/04/22 11:15:06;;;;;;;5.80;2.85;;;;;;;18.54;39.34;99284.03;4952420;28;20133;-88
2023/04/22 11:17:31;;;;;;;5.78;1.98;;;;;;;18.32;40.02;99285.03;4945907;28;20043;-87
2023/04/22 11:19:57;;;;;;;4.15;2.30;;;;;;;18.07;39.78;99285.81;4935211;28;20047;-87
2023/04/22 11:22:23;;;;;;;3.17;2.05;;;;;;;18.06;40.77;99293.19;4946696;28;20061;-88
2023/04/22 11:24:59;;;;;;;7.30;2.60;;;;;;;17.57;41.84;99295.19;4943855;28;20190;-88
2023/04/22 11:27:25;;;;;;;5.00;2.50;;;;;;;17.63;41.88;99309.44;4959440;28;20035;-87
2023/04/22 11:30:07;;;;;;;3.78;2.33;;;;;;;17.49;42.79;99298.69;4960580;28;20051;-87
2023/04/22 11:32:36;;;;;;;6.20;2.72;;;;;;;17.50;44.60;99311.97;4975264;28;20489;-88